createdAt,value
2019-04-25T00:00:15.136Z,86.85
2019-04-25T00:01:15.126Z,87.05
2019-04-25T00:02:15.127Z,86.55
2019-04-25T00:03:15.092Z,86.25
2019-04-25T00:04:15.082Z,86.35
2019-04-25T00:05:15.067Z,85.24
2019-04-25T00:06:15.054Z,85.64
2019-04-25T00:07:15.084Z,85.70
2019-04-25T00:08:15.050Z,85.80
2019-04-25T00:09:15.112Z,85.50
2019-04-25T00:10:15.018Z,85.10
2019-04-25T00:11:15.013Z,85.30
2019-04-25T00:12:15.010Z,85.19
2019-04-25T00:13:15.033Z,84.55
2019-04-25T00:14:14.975Z,84.14
2019-04-25T00:15:14.966Z,84.11
2019-04-25T00:16:14.993Z,84.14
2019-04-25T00:17:15.026Z,84.55
2019-04-25T00:18:14.996Z,84.45
2019-04-25T00:19:14.963Z,84.55
2019-04-25T00:20:14.942Z,84.34
2019-04-25T00:21:14.942Z,83.80
2019-04-25T00:22:14.889Z,83.64
2019-04-25T00:23:14.885Z,83.74
2019-04-25T00:24:14.946Z,83.94
2019-04-25T00:25:17.706Z,83.60
2019-04-25T00:26:14.847Z,83.60
2019-04-25T00:27:14.919Z,83.70
2019-04-25T00:28:14.882Z,83.19
2019-04-25T00:29:14.813Z,83.29
2019-04-25T00:30:14.816Z,83.90
2019-04-25T00:31:14.942Z,83.90
2019-04-25T00:32:14.798Z,83.29
2019-04-25T00:33:14.766Z,83.70
2019-04-25T00:34:14.777Z,83.70
2019-04-25T00:35:14.769Z,83.54
2019-04-25T00:36:14.788Z,83.84
2019-04-25T00:37:14.728Z,83.90
2019-04-25T00:38:14.767Z,83.64
2019-04-25T00:39:14.722Z,83.84
2019-04-25T00:40:14.755Z,83.64
2019-04-25T00:41:14.680Z,83.74
2019-04-25T00:42:14.661Z,84.25
2019-04-25T00:43:14.705Z,83.64
2019-04-25T00:44:14.671Z,83.84
2019-04-25T00:45:14.641Z,83.54
2019-04-25T00:46:14.631Z,83.68
2019-04-25T00:47:14.611Z,84.28
2019-04-25T00:48:14.606Z,84.89
2019-04-25T00:49:14.605Z,84.45
2019-04-25T00:50:14.681Z,84.59
2019-04-25T00:51:14.570Z,84.45
2019-04-25T00:52:14.565Z,84.04
2019-04-25T00:53:14.677Z,84.14
2019-04-25T00:54:14.566Z,84.14
2019-04-25T00:55:26.130Z,84.14
2019-04-25T00:56:15.523Z,85.76
2019-04-25T00:57:14.557Z,87.18
2019-04-25T00:58:14.492Z,86.27
2019-04-25T00:59:14.529Z,87.58
2019-04-25T01:00:14.485Z,86.77
2019-04-25T01:01:14.490Z,87.58
2019-04-25T01:02:14.449Z,87.48
2019-04-25T01:03:14.473Z,88.29
2019-04-25T01:04:14.445Z,87.88
2019-04-25T01:05:14.476Z,88.23
2019-04-25T01:06:14.405Z,88.23
2019-04-25T01:07:14.436Z,89.75
2019-04-25T01:08:14.411Z,88.33
2019-04-25T01:09:14.372Z,87.82
2019-04-25T01:10:14.452Z,88.33
2019-04-25T01:11:14.371Z,88.53
2019-04-25T01:12:14.400Z,88.43
2019-04-25T01:13:14.326Z,89.14
2019-04-25T01:14:14.364Z,89.34
2019-04-25T01:15:14.325Z,89.59
2019-04-25T01:16:14.344Z,89.99
2019-04-25T01:17:14.380Z,88.13
2019-04-25T01:18:14.293Z,88.33
2019-04-25T01:19:14.272Z,88.74
2019-04-25T01:20:14.268Z,88.74
2019-04-25T01:21:14.257Z,88.13
2019-04-25T01:22:14.491Z,88.53
2019-04-25T01:23:14.250Z,87.12
2019-04-25T01:24:15.706Z,88.13
2019-04-25T01:25:14.244Z,88.33
2019-04-25T01:26:14.266Z,88.02
2019-04-25T01:27:14.178Z,88.23
2019-04-25T01:28:14.168Z,88.53
2019-04-25T01:29:14.193Z,88.23
2019-04-25T01:30:14.198Z,88.33
2019-04-25T01:31:14.176Z,88.64
2019-04-25T01:32:14.136Z,88.23
2019-04-25T01:33:14.122Z,88.33
2019-04-25T01:34:14.294Z,88.02
2019-04-25T01:35:14.106Z,87.93
2019-04-25T01:36:14.118Z,88.13
2019-04-25T01:37:14.119Z,87.52
2019-04-25T01:38:14.058Z,87.42
2019-04-25T01:39:14.416Z,87.68
2019-04-25T01:40:14.152Z,87.38
2019-04-25T01:41:14.585Z,87.58
2019-04-25T01:42:14.012Z,87.28
2019-04-25T01:43:14.010Z,86.98
2019-04-25T01:44:14.350Z,87.08
2019-04-25T01:45:14.159Z,86.87
2019-04-25T01:46:14.888Z,86.67
2019-04-25T01:47:14.147Z,86.98
2019-04-25T01:48:13.946Z,86.67
2019-04-25T01:49:14.064Z,87.18
2019-04-25T01:50:13.925Z,86.67
2019-04-25T01:51:14.291Z,86.98
2019-04-25T01:52:13.920Z,86.98
2019-04-25T01:53:14.606Z,86.91
2019-04-25T01:54:14.173Z,86.77
2019-04-25T01:55:13.923Z,86.57
2019-04-25T01:56:13.884Z,86.82
2019-04-25T01:57:14.327Z,87.62
2019-04-25T01:58:13.851Z,87.02
2019-04-25T01:59:15.199Z,87.12
2019-04-25T02:00:14.055Z,87.99
2019-04-25T02:01:14.325Z,88.43
2019-04-25T02:02:14.086Z,89.65
2019-04-25T02:03:13.799Z,89.34
2019-04-25T02:04:13.803Z,89.34
2019-04-25T02:05:13.959Z,89.24
2019-04-25T02:06:13.796Z,89.75
2019-04-25T02:07:13.819Z,89.24
2019-04-25T02:08:14.292Z,89.75
2019-04-25T02:09:13.777Z,89.95
2019-04-25T02:10:13.735Z,89.54
2019-04-25T02:11:14.189Z,89.65
2019-04-25T02:12:15.468Z,89.34
2019-04-25T02:13:13.988Z,89.34
2019-04-25T02:14:13.803Z,88.84
2019-04-25T02:15:13.838Z,89.34
2019-04-25T02:16:14.192Z,89.65
2019-04-25T02:17:14.136Z,89.75
2019-04-25T02:18:13.767Z,89.75
2019-04-25T02:19:14.504Z,90.16
2019-04-25T02:20:14.071Z,90.11
2019-04-25T02:21:13.794Z,91.16
2019-04-25T02:22:14.531Z,92.33
2019-04-25T02:23:14.137Z,91.57
2019-04-25T02:24:13.762Z,91.37
2019-04-25T02:25:13.564Z,91.87
2019-04-25T02:26:18.216Z,91.06
2019-04-25T02:27:13.681Z,92.18
2019-04-25T02:28:13.957Z,92.48
2019-04-25T02:29:13.746Z,92.58
2019-04-25T02:30:15.485Z,93.39
2019-04-25T02:31:15.369Z,92.48
2019-04-25T02:32:14.602Z,93.39
2019-04-25T02:33:14.225Z,94.30
2019-04-25T02:34:15.308Z,94.24
2019-04-25T02:35:14.722Z,93.59
2019-04-25T02:36:15.084Z,93.54
2019-04-25T02:37:14.588Z,94.50
2019-04-25T02:38:16.533Z,93.70
2019-04-25T02:39:14.843Z,94.35
2019-04-25T02:40:14.178Z,93.94
2019-04-25T02:41:14.751Z,94.14
2019-04-25T02:42:14.328Z,95.15
2019-04-25T02:43:14.258Z,94.75
2019-04-25T02:44:14.570Z,94.55
2019-04-25T02:45:16.094Z,95.36
2019-04-25T02:46:15.135Z,95.42
2019-04-25T02:47:14.782Z,94.35
2019-04-25T02:48:14.202Z,94.40
2019-04-25T02:49:28.959Z,94.95
2019-04-25T02:50:15.066Z,95.15
2019-04-25T02:51:14.594Z,94.85
2019-04-25T02:52:17.656Z,94.55
2019-04-25T02:53:14.180Z,94.55
2019-04-25T02:54:13.981Z,95.21
2019-04-25T02:55:29.479Z,95.06
2019-04-25T02:56:30.482Z,95.06
2019-04-25T02:57:14.707Z,94.24
2019-04-25T02:58:14.150Z,95.15
2019-04-25T02:59:14.938Z,95.46
2019-04-25T03:00:14.958Z,94.14
2019-04-25T03:01:19.453Z,94.71
2019-04-25T03:02:15.359Z,95.26
2019-04-25T03:03:14.887Z,95.31
2019-04-25T03:04:14.420Z,94.60
2019-04-25T03:05:14.261Z,95.11
2019-04-25T03:06:15.021Z,95.26
2019-04-25T03:07:16.841Z,94.75
2019-04-25T03:08:14.275Z,94.85
2019-04-25T03:09:15.412Z,95.11
2019-04-25T03:10:14.861Z,95.76
2019-04-25T03:11:14.930Z,95.36
2019-04-25T03:12:26.778Z,94.55
2019-04-25T03:13:14.826Z,94.81
2019-04-25T03:14:14.707Z,94.50
2019-04-25T03:15:14.472Z,94.14
2019-04-25T03:16:14.018Z,94.60
2019-04-25T03:17:14.385Z,95.36
2019-04-25T03:18:15.266Z,94.71
2019-04-25T03:19:14.146Z,95.15
2019-04-25T03:20:14.829Z,94.65
2019-04-25T03:21:16.955Z,94.14
2019-04-25T03:22:15.073Z,94.04
2019-04-25T03:23:14.510Z,93.49
2019-04-25T03:24:15.925Z,94.35
2019-04-25T03:25:17.091Z,93.70
2019-04-25T03:26:13.530Z,93.84
2019-04-25T03:27:14.254Z,93.59
2019-04-25T03:28:13.537Z,93.84
2019-04-25T03:29:13.677Z,93.79
2019-04-25T03:30:16.635Z,93.23
2019-04-25T03:31:18.677Z,92.52
2019-04-25T03:32:19.344Z,94.00
2019-04-25T03:33:19.109Z,93.39
2019-04-25T03:34:19.267Z,93.63
2019-04-25T03:35:14.512Z,92.79
2019-04-25T03:36:13.979Z,92.48
2019-04-25T03:37:13.758Z,92.48
2019-04-25T03:38:14.413Z,92.58
2019-04-25T03:39:14.836Z,92.38
2019-04-25T03:40:13.988Z,92.42
2019-04-25T03:41:14.644Z,92.58
2019-04-25T03:42:14.098Z,90.86
2019-04-25T03:43:14.633Z,91.67
2019-04-25T03:44:13.955Z,92.08
2019-04-25T03:45:14.016Z,91.27
2019-04-25T03:46:14.212Z,91.57
2019-04-25T03:47:13.567Z,90.56
2019-04-25T03:48:13.945Z,90.66
2019-04-25T03:49:13.949Z,90.36
2019-04-25T03:50:13.974Z,90.25
2019-04-25T03:51:15.381Z,90.86
2019-04-25T03:52:14.152Z,89.45
2019-04-25T03:53:13.909Z,89.08
2019-04-25T03:54:14.116Z,89.75
2019-04-25T03:55:14.287Z,89.75
2019-04-25T03:56:14.479Z,89.18
2019-04-25T03:57:14.335Z,89.59
2019-04-25T03:58:13.107Z,89.28
2019-04-25T03:59:14.694Z,89.14
2019-04-25T04:00:14.354Z,89.65
2019-04-25T04:01:13.822Z,89.85
2019-04-25T04:02:13.525Z,89.69
2019-04-25T04:03:14.237Z,88.78
2019-04-25T04:04:15.767Z,89.69
2019-04-25T04:05:13.926Z,88.48
2019-04-25T04:06:14.220Z,88.57
2019-04-25T04:07:14.317Z,88.88
2019-04-25T04:08:12.490Z,88.68
2019-04-25T04:09:13.930Z,88.68
2019-04-25T04:10:14.219Z,88.72
2019-04-25T04:11:14.080Z,89.12
2019-04-25T04:12:12.439Z,88.82
2019-04-25T04:13:14.198Z,88.92
2019-04-25T04:14:14.409Z,89.53
2019-04-25T04:15:14.389Z,89.87
2019-04-25T04:16:14.121Z,89.87
2019-04-25T04:17:14.438Z,89.98
2019-04-25T04:18:14.448Z,89.67
2019-04-25T04:19:13.130Z,90.89
2019-04-25T04:20:14.501Z,90.69
2019-04-25T04:21:13.575Z,90.99
2019-04-25T04:22:13.690Z,90.73
2019-04-25T04:23:13.489Z,91.03
2019-04-25T04:24:13.836Z,91.34
2019-04-25T04:25:13.650Z,91.54
2019-04-25T04:26:13.666Z,91.34
2019-04-25T04:27:12.240Z,91.64
2019-04-25T04:28:13.791Z,91.74
2019-04-25T04:29:13.802Z,90.93
2019-04-25T04:30:12.268Z,91.34
2019-04-25T04:31:12.598Z,91.74
2019-04-25T04:32:12.578Z,91.48
2019-04-25T04:33:23.089Z,91.58
2019-04-25T04:34:14.674Z,91.68
2019-04-25T04:35:14.621Z,91.48
2019-04-25T04:36:14.470Z,91.68
2019-04-25T04:37:13.951Z,91.52
2019-04-25T04:38:12.134Z,91.68
2019-04-25T04:39:13.869Z,91.78
2019-04-25T04:40:12.124Z,91.83
2019-04-25T04:41:12.096Z,91.28
2019-04-25T04:42:13.702Z,91.22
2019-04-25T04:43:12.145Z,91.42
2019-04-25T04:44:12.049Z,91.73
2019-04-25T04:45:13.636Z,91.52
2019-04-25T04:46:13.620Z,91.63
2019-04-25T04:47:13.657Z,91.32
2019-04-25T04:48:14.106Z,91.22
2019-04-25T04:49:12.779Z,91.52
2019-04-25T04:50:14.162Z,91.73
2019-04-25T04:51:14.208Z,91.67
2019-04-25T04:52:12.908Z,91.26
2019-04-25T04:53:12.820Z,91.32
2019-04-25T04:54:13.514Z,91.97
2019-04-25T04:55:14.626Z,91.87
2019-04-25T04:56:11.922Z,92.38
2019-04-25T04:57:26.117Z,92.28
2019-04-25T04:58:14.605Z,92.28
2019-04-25T04:59:12.861Z,92.48
2019-04-25T05:00:14.153Z,92.79
2019-04-25T05:01:13.040Z,93.70
2019-04-25T05:02:14.618Z,92.79
2019-04-25T05:03:13.023Z,93.70
2019-04-25T05:04:12.649Z,93.70
2019-04-25T05:05:14.240Z,94.00
2019-04-25T05:06:11.829Z,94.41
2019-04-25T05:07:11.799Z,94.66
2019-04-25T05:08:12.974Z,94.61
2019-04-25T05:09:12.472Z,94.61
2019-04-25T05:10:14.493Z,94.31
2019-04-25T05:11:12.944Z,94.61
2019-04-25T05:12:11.747Z,94.41
2019-04-25T05:13:12.157Z,94.56
2019-04-25T05:14:11.849Z,94.86
2019-04-25T05:15:12.465Z,94.66
2019-04-25T05:16:12.558Z,94.45
2019-04-25T05:17:12.224Z,94.05
2019-04-25T05:18:12.721Z,94.51
2019-04-25T05:19:12.893Z,94.21
2019-04-25T05:20:11.997Z,94.51
2019-04-25T05:21:11.874Z,95.12
2019-04-25T05:22:13.002Z,94.61
2019-04-25T05:23:11.971Z,94.82
2019-04-25T05:24:12.838Z,94.41
2019-04-25T05:25:13.440Z,94.61
2019-04-25T05:26:12.190Z,94.57
2019-04-25T05:27:12.775Z,94.46
2019-04-25T05:28:13.004Z,94.37
2019-04-25T05:29:11.588Z,93.96
2019-04-25T05:30:11.578Z,93.86
2019-04-25T05:31:14.115Z,93.96
2019-04-25T05:32:11.546Z,92.80
2019-04-25T05:33:11.526Z,93.10
2019-04-25T05:34:11.515Z,92.44
2019-04-25T05:35:13.201Z,92.70
2019-04-25T05:36:11.508Z,91.89
2019-04-25T05:37:11.474Z,91.54
2019-04-25T05:38:13.222Z,89.59
2019-04-25T05:39:11.457Z,87.70
2019-04-25T05:40:11.494Z,83.18
2019-04-25T05:41:11.506Z,83.50
2019-04-25T05:42:11.424Z,79.87
2019-04-25T05:43:11.501Z,80.72
2019-04-25T05:44:11.417Z,80.11
2019-04-25T05:45:11.394Z,80.35
2019-04-25T05:46:13.177Z,79.94
2019-04-25T05:47:11.366Z,80.99
2019-04-25T05:48:11.408Z,81.60
2019-04-25T05:49:11.346Z,80.59
2019-04-25T05:50:11.422Z,79.81
2019-04-25T05:51:11.340Z,78.19
2019-04-25T05:52:11.374Z,78.59
2019-04-25T05:53:11.310Z,76.94
2019-04-25T05:54:11.346Z,75.52
2019-04-25T05:55:11.288Z,74.04
2019-04-25T05:56:11.307Z,71.16
2019-04-25T05:57:11.267Z,69.59
2019-04-25T05:58:11.265Z,69.59
2019-04-25T05:59:11.315Z,66.52
2019-04-25T06:00:11.235Z,67.09
2019-04-25T06:01:11.246Z,65.53
2019-04-25T06:02:11.275Z,62.67
2019-04-25T06:03:11.240Z,62.12
2019-04-25T06:04:11.186Z,60.59
2019-04-25T06:05:11.221Z,57.87
2019-04-25T06:06:11.173Z,59.23
2019-04-25T06:07:11.168Z,57.29
2019-04-25T06:08:11.141Z,56.24
2019-04-25T06:09:11.140Z,56.02
2019-04-25T06:10:11.157Z,54.17
2019-04-25T06:11:11.129Z,53.56
2019-04-25T06:12:11.124Z,52.02
2019-04-25T06:13:11.104Z,49.59
2019-04-25T06:14:11.079Z,47.69
2019-04-25T06:15:11.067Z,47.96
2019-04-25T06:16:11.061Z,47.03
2019-04-25T06:17:11.066Z,47.30
2019-04-25T06:18:11.050Z,46.88
2019-04-25T06:19:13.998Z,46.94
2019-04-25T06:20:13.459Z,45.63
2019-04-25T06:21:11.007Z,44.23
2019-04-25T06:22:11.080Z,44.70
2019-04-25T06:23:10.995Z,42.59
2019-04-25T06:24:10.984Z,43.77
2019-04-25T06:25:13.808Z,43.46
2019-04-25T06:26:23.048Z,43.75
2019-04-25T06:27:11.978Z,42.47
2019-04-25T06:28:10.939Z,42.86
2019-04-25T06:29:10.925Z,41.74
2019-04-25T06:30:10.911Z,40.96
2019-04-25T06:31:10.955Z,40.82
2019-04-25T06:32:10.895Z,39.45
2019-04-25T06:33:10.947Z,40.27
2019-04-25T06:34:10.875Z,40.56
2019-04-25T06:35:10.857Z,41.00
2019-04-25T06:36:10.849Z,41.43
2019-04-25T06:37:10.846Z,42.16
2019-04-25T06:38:10.847Z,42.89
2019-04-25T06:39:10.819Z,43.13
2019-04-25T06:40:10.881Z,44.43
2019-04-25T06:41:10.797Z,44.95
2019-04-25T06:42:10.789Z,46.01
2019-04-25T06:43:10.805Z,44.02
2019-04-25T06:44:10.769Z,44.36
2019-04-25T06:45:10.815Z,44.02
2019-04-25T06:46:10.743Z,43.27
2019-04-25T06:47:10.792Z,43.52
2019-04-25T06:48:10.809Z,40.66
2019-04-25T06:49:10.718Z,42.04
2019-04-25T06:50:10.702Z,41.02
2019-04-25T06:51:10.749Z,42.38
2019-04-25T06:52:10.695Z,42.22
2019-04-25T06:53:10.727Z,43.60
2019-04-25T06:54:10.674Z,42.52
2019-04-25T06:55:10.648Z,41.93
2019-04-25T06:56:10.658Z,42.38
2019-04-25T06:57:10.648Z,41.55
2019-04-25T06:58:13.983Z,42.30
2019-04-25T06:59:10.653Z,39.80
2019-04-25T07:00:10.611Z,37.85
2019-04-25T07:01:10.601Z,38.64
2019-04-25T07:02:10.575Z,39.68
2019-04-25T07:03:10.646Z,39.54
2019-04-25T07:04:10.566Z,36.99
2019-04-25T07:05:10.547Z,37.56
2019-04-25T07:06:10.534Z,36.96
2019-04-25T07:07:13.124Z,36.35
2019-04-25T07:08:10.521Z,37.02
2019-04-25T07:09:10.526Z,36.51
2019-04-25T07:10:10.496Z,36.12
2019-04-25T07:11:10.482Z,35.91
2019-04-25T07:12:10.568Z,35.87
2019-04-25T07:13:10.462Z,35.63
2019-04-25T07:14:10.489Z,36.32
2019-04-25T07:15:10.600Z,34.44
2019-04-25T07:16:10.440Z,34.81
2019-04-25T07:17:10.424Z,34.58
2019-04-25T07:18:10.411Z,33.87
2019-04-25T07:19:10.492Z,34.75
2019-04-25T07:20:10.418Z,32.47
2019-04-25T07:21:10.382Z,31.96
2019-04-25T07:22:10.378Z,31.66
2019-04-25T07:23:10.360Z,31.45
2019-04-25T07:24:10.440Z,30.85
2019-04-25T07:25:10.404Z,31.53
2019-04-25T07:26:10.402Z,32.20
2019-04-25T07:27:10.378Z,32.37
2019-04-25T07:28:22.865Z,31.58
2019-04-25T07:29:11.345Z,30.52
2019-04-25T07:30:10.310Z,31.38
2019-04-25T07:31:10.282Z,30.72
2019-04-25T07:32:10.318Z,29.75
2019-04-25T07:33:10.365Z,30.71
2019-04-25T07:34:10.247Z,29.54
2019-04-25T07:35:10.256Z,29.72
2019-04-25T07:36:10.242Z,28.07
2019-04-25T07:37:10.220Z,27.78
2019-04-25T07:38:10.262Z,28.74
2019-04-25T07:39:10.797Z,28.83
2019-04-25T07:40:10.215Z,28.43
2019-04-25T07:41:10.188Z,27.36
2019-04-25T07:42:10.225Z,29.01
2019-04-25T07:43:10.169Z,28.98
2019-04-25T07:44:10.147Z,27.33
2019-04-25T07:45:10.195Z,27.35
2019-04-25T07:46:10.129Z,26.28
2019-04-25T07:47:10.129Z,26.28
2019-04-25T07:48:10.103Z,27.46
2019-04-25T07:49:10.093Z,27.46
2019-04-25T07:50:10.191Z,27.08
2019-04-25T07:51:10.080Z,26.40
2019-04-25T07:52:11.559Z,27.18
2019-04-25T07:53:10.095Z,26.40
2019-04-25T07:54:10.061Z,26.68
2019-04-25T07:55:10.062Z,26.49
2019-04-25T07:56:10.028Z,27.84
2019-04-25T07:57:10.343Z,26.50
2019-04-25T07:58:10.011Z,27.21
2019-04-25T07:59:10.029Z,28.69
2019-04-25T08:00:10.027Z,27.93
2019-04-25T08:01:09.983Z,27.34
2019-04-25T08:02:09.969Z,27.70
2019-04-25T08:03:10.073Z,27.80
2019-04-25T08:04:09.968Z,25.64
2019-04-25T08:05:10.042Z,28.34
2019-04-25T08:06:09.935Z,26.00
2019-04-25T08:07:09.917Z,25.73
2019-04-25T08:08:09.967Z,26.01
2019-04-25T08:09:09.901Z,25.90
2019-04-25T08:10:09.893Z,23.96
2019-04-25T08:11:09.964Z,26.38
2019-04-25T08:12:09.915Z,26.28
2019-04-25T08:13:09.860Z,26.50
2019-04-25T08:14:09.857Z,26.21
2019-04-25T08:15:09.884Z,26.11
2019-04-25T08:16:09.857Z,26.60
2019-04-25T08:17:09.820Z,26.21
2019-04-25T08:18:09.816Z,27.47
2019-04-25T08:19:09.798Z,26.51
2019-04-25T08:20:09.809Z,27.03
2019-04-25T08:21:09.914Z,28.33
2019-04-25T08:22:09.779Z,29.04
2019-04-25T08:23:09.764Z,28.97
2019-04-25T08:24:09.752Z,27.75
2019-04-25T08:25:09.742Z,30.02
2019-04-25T08:26:09.878Z,31.21
2019-04-25T08:27:09.741Z,30.65
2019-04-25T08:28:09.738Z,31.84
2019-04-25T08:29:09.704Z,31.19
2019-04-25T08:30:09.699Z,32.01
2019-04-25T08:31:09.727Z,31.74
2019-04-25T08:32:09.691Z,33.03
2019-04-25T08:33:09.703Z,34.34
2019-04-25T08:34:09.654Z,35.74
2019-04-25T08:35:09.650Z,35.66
2019-04-25T08:36:09.646Z,35.97
2019-04-25T08:37:18.153Z,36.58
2019-04-25T08:38:10.637Z,36.21
2019-04-25T08:39:09.608Z,36.99
2019-04-25T08:40:09.586Z,36.22
2019-04-25T08:41:09.612Z,37.43
2019-04-25T08:42:09.572Z,36.85
2019-04-25T08:43:09.552Z,36.67
2019-04-25T08:44:09.603Z,37.48
2019-04-25T08:45:09.538Z,37.28
2019-04-25T08:46:09.530Z,37.20
2019-04-25T08:47:09.608Z,39.40
2019-04-25T08:48:09.498Z,38.13
2019-04-25T08:49:09.626Z,40.52
2019-04-25T08:50:09.488Z,39.55
2019-04-25T08:51:09.480Z,38.38
2019-04-25T08:52:09.531Z,41.47
2019-04-25T08:53:09.534Z,42.27
2019-04-25T08:54:09.440Z,43.85
2019-04-25T08:55:09.430Z,40.90
2019-04-25T08:56:09.491Z,41.30
2019-04-25T08:57:09.429Z,43.90
2019-04-25T08:58:09.448Z,42.19
2019-04-25T08:59:09.390Z,41.89
2019-04-25T09:00:09.410Z,40.01
2019-04-25T09:01:09.375Z,39.90
2019-04-25T09:02:09.516Z,40.20
2019-04-25T09:03:09.410Z,41.71
2019-04-25T09:04:09.413Z,38.73
2019-04-25T09:05:09.323Z,40.64
2019-04-25T09:06:09.328Z,38.95
2019-04-25T09:07:09.521Z,40.36
2019-04-25T09:08:09.363Z,40.36
2019-04-25T09:09:09.292Z,39.09
2019-04-25T09:10:09.277Z,42.47
2019-04-25T09:11:09.409Z,40.80
2019-04-25T09:12:09.305Z,41.79
2019-04-25T09:13:09.239Z,42.29
2019-04-25T09:14:09.229Z,42.99
2019-04-25T09:15:09.224Z,43.19
2019-04-25T09:16:09.211Z,42.61
2019-04-25T09:17:09.325Z,45.28
2019-04-25T09:18:09.197Z,42.61
2019-04-25T09:19:09.181Z,42.09
2019-04-25T09:20:09.181Z,43.98
2019-04-25T09:21:09.161Z,42.37
2019-04-25T09:22:09.151Z,40.78
2019-04-25T09:23:09.146Z,41.99
2019-04-25T09:24:09.153Z,41.79
2019-04-25T09:25:09.141Z,44.10
2019-04-25T09:26:09.115Z,44.31
2019-04-25T09:27:09.095Z,45.00
2019-04-25T09:28:09.099Z,44.60
2019-04-25T09:29:18.878Z,46.30
2019-04-25T09:30:10.062Z,44.40
2019-04-25T09:31:09.049Z,44.02
2019-04-25T09:32:09.060Z,44.42
2019-04-25T09:33:09.053Z,42.73
2019-04-25T09:34:09.030Z,41.71
2019-04-25T09:35:09.012Z,40.52
2019-04-25T09:36:08.996Z,39.44
2019-04-25T09:37:08.984Z,40.62
2019-04-25T09:38:09.010Z,38.53
2019-04-25T09:39:08.969Z,41.09
2019-04-25T09:40:08.963Z,40.60
2019-04-25T09:41:09.024Z,41.20
2019-04-25T09:42:08.959Z,42.19
2019-04-25T09:43:08.938Z,41.97
2019-04-25T09:44:08.920Z,43.16
2019-04-25T09:45:08.911Z,41.38
2019-04-25T09:46:08.889Z,41.28
2019-04-25T09:47:08.893Z,41.38
2019-04-25T09:48:08.880Z,41.47
2019-04-25T09:49:08.857Z,40.28
2019-04-25T09:50:08.853Z,42.77
2019-04-25T09:51:08.843Z,40.58
2019-04-25T09:52:08.871Z,39.57
2019-04-25T09:53:15.493Z,43.74
2019-04-25T09:54:09.812Z,39.65
2019-04-25T09:55:08.796Z,40.05
2019-04-25T09:56:08.792Z,40.64
2019-04-25T09:57:08.782Z,40.94
2019-04-25T09:58:08.808Z,41.31
2019-04-25T09:59:08.763Z,40.22
2019-04-25T10:00:08.744Z,39.63
2019-04-25T10:01:08.730Z,41.09
2019-04-25T10:02:08.746Z,38.42
2019-04-25T10:03:08.745Z,42.47
2019-04-25T10:04:08.708Z,40.70
2019-04-25T10:05:08.730Z,40.90
2019-04-25T10:06:08.681Z,40.70
2019-04-25T10:07:08.668Z,40.70
2019-04-25T10:08:08.658Z,38.73
2019-04-25T10:09:08.660Z,40.42
2019-04-25T10:10:08.659Z,40.22
2019-04-25T10:11:08.830Z,41.91
2019-04-25T10:12:08.622Z,42.61
2019-04-25T10:13:08.646Z,41.22
2019-04-25T10:14:08.638Z,40.94
2019-04-25T10:15:08.592Z,42.43
2019-04-25T10:16:08.583Z,41.42
2019-04-25T10:17:08.580Z,39.33
2019-04-25T10:18:08.573Z,41.69
2019-04-25T10:19:08.559Z,41.36
2019-04-25T10:20:08.547Z,37.96
2019-04-25T10:21:08.576Z,39.45
2019-04-25T10:22:08.530Z,38.64
2019-04-25T10:23:08.510Z,37.26
2019-04-25T10:24:08.548Z,36.76
2019-04-25T10:25:08.512Z,34.28
2019-04-25T10:26:08.474Z,34.95
2019-04-25T10:27:08.464Z,38.80
2019-04-25T10:28:08.464Z,36.41
2019-04-25T10:29:08.455Z,34.73
2019-04-25T10:30:16.775Z,33.84
2019-04-25T10:31:09.439Z,34.03
2019-04-25T10:32:08.411Z,32.93
2019-04-25T10:33:08.403Z,32.32
2019-04-25T10:34:08.401Z,33.90
2019-04-25T10:35:08.381Z,33.98
2019-04-25T10:36:08.367Z,35.27
2019-04-25T10:37:08.391Z,36.36
2019-04-25T10:38:08.345Z,37.45
2019-04-25T10:39:10.858Z,35.57
2019-04-25T10:40:08.328Z,36.27
2019-04-25T10:41:08.316Z,29.36
2019-04-25T10:42:08.300Z,32.12
2019-04-25T10:43:08.306Z,32.32
2019-04-25T10:44:08.279Z,33.11
2019-04-25T10:45:20.412Z,33.61
2019-04-25T10:46:09.257Z,32.81
2019-04-25T10:47:08.249Z,34.50
2019-04-25T10:48:08.235Z,31.84
2019-04-25T10:49:08.258Z,30.46
2019-04-25T10:50:08.236Z,33.72
2019-04-25T10:51:08.225Z,33.62
2019-04-25T10:52:08.200Z,33.72
2019-04-25T10:53:08.187Z,32.32
2019-04-25T10:54:08.180Z,33.89
2019-04-25T10:55:08.187Z,34.66
2019-04-25T10:56:08.188Z,32.57
2019-04-25T10:57:08.154Z,32.87
2019-04-25T10:58:08.131Z,34.82
2019-04-25T10:59:08.119Z,31.93
2019-04-25T11:00:09.626Z,30.72
2019-04-25T11:01:08.103Z,32.54
2019-04-25T11:02:08.121Z,30.63
2019-04-25T11:03:08.105Z,32.45
2019-04-25T11:04:08.117Z,27.39
2019-04-25T11:05:08.077Z,25.10
2019-04-25T11:06:08.065Z,23.52
2019-04-25T11:07:08.039Z,23.14
2019-04-25T11:08:08.035Z,23.34
2019-04-25T11:09:08.021Z,25.16
2019-04-25T11:10:08.057Z,22.91
2019-04-25T11:11:08.005Z,23.67
2019-04-25T11:12:07.996Z,23.35
2019-04-25T11:13:07.990Z,22.92
2019-04-25T11:14:07.982Z,20.85
2019-04-25T11:15:07.980Z,23.26
2019-04-25T11:16:07.980Z,22.65
2019-04-25T11:17:07.944Z,21.07
2019-04-25T11:18:07.940Z,21.44
2019-04-25T11:19:07.938Z,22.47
2019-04-25T11:20:07.934Z,20.63
2019-04-25T11:21:07.913Z,21.01
2019-04-25T11:22:07.925Z,19.17
2019-04-25T11:23:07.891Z,19.35
2019-04-25T11:24:07.993Z,18.00
2019-04-25T11:25:07.911Z,20.50
2019-04-25T11:26:07.864Z,18.95
2019-04-25T11:27:07.876Z,20.28
2019-04-25T11:28:07.844Z,17.88
2019-04-25T11:29:07.930Z,21.53
2019-04-25T11:30:11.143Z,19.02
2019-04-25T11:31:07.816Z,18.06
2019-04-25T11:32:07.810Z,17.86
2019-04-25T11:33:07.806Z,17.76
2019-04-25T11:34:07.800Z,19.37
2019-04-25T11:35:07.822Z,19.56
2019-04-25T11:36:07.864Z,17.83
2019-04-25T11:37:07.768Z,17.67
2019-04-25T11:38:08.172Z,19.11
2019-04-25T11:39:07.756Z,17.10
2019-04-25T11:40:07.811Z,18.18
2019-04-25T11:41:07.752Z,18.46
2019-04-25T11:42:07.721Z,18.76
2019-04-25T11:43:07.705Z,16.64
2019-04-25T11:44:07.745Z,17.78
2019-04-25T11:45:07.707Z,15.37
2019-04-25T11:46:07.689Z,15.85
2019-04-25T11:47:08.743Z,16.42
2019-04-25T11:48:07.662Z,16.42
2019-04-25T11:49:07.796Z,16.80
2019-04-25T11:50:07.656Z,16.31
2019-04-25T11:51:07.634Z,15.65
2019-04-25T11:52:07.622Z,17.08
2019-04-25T11:53:07.608Z,17.35
2019-04-25T11:54:07.635Z,17.54
2019-04-25T11:55:07.612Z,17.14
2019-04-25T11:56:07.585Z,15.33
2019-04-25T11:57:07.580Z,16.37
2019-04-25T11:58:07.566Z,16.84
2019-04-25T11:59:07.556Z,15.32
2019-04-25T12:00:07.640Z,15.34
2019-04-25T12:01:07.530Z,15.66
2019-04-25T12:02:07.538Z,15.77
2019-04-25T12:03:07.537Z,16.35
2019-04-25T12:04:07.511Z,17.99
2019-04-25T12:05:07.589Z,17.50
2019-04-25T12:06:07.502Z,17.97
2019-04-25T12:07:08.586Z,17.09
2019-04-25T12:08:07.496Z,17.36
2019-04-25T12:09:07.463Z,16.11
2019-04-25T12:10:07.472Z,17.14
2019-04-25T12:11:07.444Z,15.89
2019-04-25T12:12:07.449Z,16.66
2019-04-25T12:13:07.422Z,15.88
2019-04-25T12:14:07.414Z,16.47
2019-04-25T12:15:07.419Z,15.13
2019-04-25T12:16:07.446Z,15.25
2019-04-25T12:17:07.389Z,15.53
2019-04-25T12:18:07.367Z,16.11
2019-04-25T12:19:07.377Z,15.92
2019-04-25T12:20:07.375Z,16.68
2019-04-25T12:21:07.352Z,15.72
2019-04-25T12:22:07.407Z,15.62
2019-04-25T12:23:10.417Z,15.15
2019-04-25T12:24:07.319Z,15.82
2019-04-25T12:25:07.333Z,15.62
2019-04-25T12:26:07.320Z,16.50
2019-04-25T12:27:07.332Z,16.29
2019-04-25T12:28:07.300Z,17.91
2019-04-25T12:29:07.271Z,17.53
2019-04-25T12:30:07.305Z,16.38
2019-04-25T12:31:07.252Z,17.33
2019-04-25T12:32:07.240Z,15.99
2019-04-25T12:33:18.258Z,16.36
2019-04-25T12:34:08.230Z,16.57
2019-04-25T12:35:07.231Z,15.05
2019-04-25T12:36:07.206Z,15.53
2019-04-25T12:37:07.189Z,16.40
2019-04-25T12:38:07.223Z,16.50
2019-04-25T12:39:07.250Z,16.50
2019-04-25T12:40:07.204Z,17.27
2019-04-25T12:41:07.159Z,15.16
2019-04-25T12:42:07.141Z,15.46
2019-04-25T12:43:07.141Z,16.72
2019-04-25T12:44:08.817Z,15.77
2019-04-25T12:45:07.140Z,15.97
2019-04-25T12:46:07.139Z,17.41
2019-04-25T12:47:07.101Z,15.20
2019-04-25T12:48:07.099Z,16.36
2019-04-25T12:49:07.074Z,16.55
2019-04-25T12:50:07.077Z,15.50
2019-04-25T12:51:07.118Z,15.99
2019-04-25T12:52:07.048Z,15.12